Flight Track Log - Related Links

Times and Time Zones

All times are in EDT time to prevent confusion due to time zone crossing. See the CHQ5017 flight status page for this flight to view local times or setup timezone preferences in your user account.

Time Position Orientation Groundspeed Altitude Reporting Facility
EDT Latitude Longitude Course Direction KTS MPH feet Rate Location/Type
Mon 05:24:14 PM 42.1631 -85.7417 266° West 218 251 9,900  Level Chicago Center
Mon 05:25:16 PM 42.1589 -85.8439 267° West 277 319 10,100 48 Climbing Chicago Center
Mon 05:26:18 PM 42.1522 -85.9742 266° West 318 366 10,000 -49 Descending Chicago Center
Mon 05:27:00 PM 42.1386 -86.0850 257° West  Level FlightAware Approximate
Mon 05:27:19 PM 42.1458 -86.0967 266° West 327 376 10,000  Level Chicago Center
Mon 05:28:00 PM 42.1354 -86.1757 273° West  Level FlightAware Approximate
Mon 05:28:21 PM 42.1458 -86.2353 270° West 314 361 10,000  Level Chicago Center
Mon 05:29:23 PM 42.1458 -86.3539 270° West 316 364 10,000 -48 Level Chicago Center
Mon 05:30:25 PM 42.0986 -86.4428 234° Southwest 287 330 9,900 -484 Descending Chicago Center
Mon 05:31:27 PM 42.0586 -86.5153 233° Southwest 248 285 9,000 -871 Descending Chicago Center
Mon 05:32:29 PM 42.0172 -86.5903 233° Southwest 249 287 8,100 -439 Descending Chicago Center
Mon 05:33:30 PM 41.9775 -86.6667 235° Southwest 250 288 8,100  Level Chicago Center
Mon 05:34:32 PM 41.9794 -86.7633 272° West 243 280 8,100  Level Chicago Center
Mon 05:35:34 PM 41.9806 -86.8556 271° West 246 283 8,100  Level Chicago Center
Mon 05:36:36 PM 41.9817 -86.9656 271° West 248 285 8,100 -48 Level Chicago Center
Mon 05:37:38 PM 41.9822 -87.0581 270° West 250 288 8,000 -48 Descending Chicago Center
Mon 05:38:40 PM 41.9825 -87.1511 270° West 252 290 8,000  Level Chicago Center
Mon 05:39:42 PM 41.9836 -87.2444 271° West 251 289 8,000 -146 Level Chicago Center
Mon 05:40:43 PM 41.9825 -87.3392 269° West 256 295 7,700 -585 Descending Chicago Center
Mon 05:41:45 PM 41.9831 -87.4456 270° West 243 280 6,800 -871 Descending Chicago Center
Mon 05:42:47 PM 41.9836 -87.5256 271° West 223 257 5,900 -968 Descending Chicago Center
Mon 05:43:49 PM 41.9833 -87.5925 270° West 190 219 4,800 -968 Descending Chicago Center
Mon 05:44:51 PM 41.9844 -87.6547 271° West 179 206 3,900 -871 Descending Chicago Center

Login

Don't have an account? Register now (free) for customized features, flight alerts, and more!